createdAt,value
2018-09-21T00:00:00.951Z,1003.12
2018-09-21T00:01:00.965Z,1003.09
2018-09-21T00:02:00.982Z,1003.10
2018-09-21T00:03:00.996Z,1003.06
2018-09-21T00:04:01.014Z,1003.06
2018-09-21T00:05:01.025Z,1002.99
2018-09-21T00:06:01.042Z,1003.01
2018-09-21T00:07:01.058Z,1002.97
2018-09-21T00:08:01.073Z,1002.97
2018-09-21T00:09:01.088Z,1002.89
2018-09-21T00:10:01.102Z,1002.92
2018-09-21T00:11:01.124Z,1002.92
2018-09-21T00:12:01.233Z,1002.92
2018-09-21T00:13:01.527Z,1002.84
2018-09-21T00:14:01.214Z,1002.84
2018-09-21T00:15:01.203Z,1002.86
2018-09-21T00:16:01.196Z,1002.82
2018-09-21T00:17:01.261Z,1002.82
2018-09-21T00:18:01.226Z,1002.81
2018-09-21T00:19:01.240Z,1002.74
2018-09-21T00:20:01.256Z,1002.74
2018-09-21T00:21:01.497Z,1002.75
2018-09-21T00:22:01.285Z,1002.66
2018-09-21T00:23:01.301Z,1002.66
2018-09-21T00:24:01.316Z,1002.64
2018-09-21T00:25:01.331Z,1002.62
2018-09-21T00:26:01.350Z,1002.63
2018-09-21T00:27:01.363Z,1002.60
2018-09-21T00:28:01.377Z,1002.61
2018-09-21T00:29:01.391Z,1002.60
2018-09-21T00:30:01.407Z,1002.60
2018-09-21T00:31:01.425Z,1002.57
2018-09-21T00:32:01.437Z,1002.53
2018-09-21T00:33:01.456Z,1002.50
2018-09-21T00:34:01.468Z,1002.51
2018-09-21T00:35:01.483Z,1002.48
2018-09-21T00:36:01.536Z,1002.48
2018-09-21T00:37:01.516Z,1002.46
2018-09-21T00:38:01.559Z,1002.48
2018-09-21T00:39:01.546Z,1002.42
2018-09-21T00:40:01.565Z,1002.43
2018-09-21T00:41:01.574Z,1002.41
2018-09-21T00:42:01.590Z,1002.37
2018-09-21T00:43:01.654Z,1002.43
2018-09-21T00:46:01.695Z,1002.36
2018-09-21T00:47:01.669Z,1002.33
2018-09-21T00:48:01.679Z,1002.31
2018-09-21T00:49:01.693Z,1002.31
2018-09-21T00:50:01.715Z,1002.33
2018-09-21T00:51:01.725Z,1002.30
2018-09-21T00:52:01.743Z,1002.32
2018-09-21T00:53:01.756Z,1002.27
2018-09-21T00:54:01.773Z,1002.30
2018-09-21T00:55:01.788Z,1002.30
2018-09-21T00:56:01.804Z,1002.31
2018-09-21T00:57:01.819Z,1002.27
2018-09-21T00:58:01.830Z,1002.23
2018-09-21T00:59:01.851Z,1002.26
2018-09-21T01:00:01.861Z,1002.23
2018-09-21T01:01:01.875Z,1002.22
2018-09-21T01:02:01.890Z,1002.19
2018-09-21T01:03:02.259Z,1002.16
2018-09-21T01:04:01.925Z,1002.16
2018-09-21T01:05:01.943Z,1002.13
2018-09-21T01:06:01.952Z,1002.08
2018-09-21T01:07:01.969Z,1002.08
2018-09-21T01:08:01.984Z,1002.06
2018-09-21T01:09:01.997Z,1002.09
2018-09-21T01:10:02.013Z,1002.11
2018-09-21T01:11:02.028Z,1002.03
2018-09-21T01:12:02.045Z,1002.09
2018-09-21T01:13:02.062Z,1002.06
2018-09-21T01:14:02.073Z,1002.10
2018-09-21T01:15:02.089Z,1002.04
2018-09-21T01:16:02.119Z,1002.00
2018-09-21T01:17:02.119Z,1001.96
2018-09-21T01:18:02.135Z,1001.91
2018-09-21T01:20:02.164Z,1001.88
2018-09-21T01:21:02.480Z,1001.88
2018-09-21T01:22:02.195Z,1001.82
2018-09-21T01:23:02.209Z,1001.84
2018-09-21T01:24:02.225Z,1001.82
2018-09-21T01:25:02.239Z,1001.79
2018-09-21T01:26:02.258Z,1001.78
2018-09-21T01:27:02.269Z,1001.73
2018-09-21T01:28:02.283Z,1001.69
2018-09-21T01:29:02.327Z,1001.74
2018-09-21T01:30:02.321Z,1001.75
2018-09-21T01:31:02.335Z,1001.74
2018-09-21T01:32:02.345Z,1001.68
2018-09-21T01:33:02.359Z,1001.72
2018-09-21T01:34:02.378Z,1001.68
2018-09-21T01:35:02.405Z,1001.69
2018-09-21T01:36:02.719Z,1001.67
2018-09-21T01:37:02.420Z,1001.65
2018-09-21T01:38:02.437Z,1001.67
2018-09-21T01:39:02.454Z,1001.62
2018-09-21T01:40:02.466Z,1001.66
2018-09-21T01:41:02.499Z,1001.66
2018-09-21T01:42:02.496Z,1001.59
2018-09-21T01:43:02.512Z,1001.57
2018-09-21T01:44:02.527Z,1001.54
2018-09-21T01:45:02.540Z,1001.52
2018-09-21T01:46:02.555Z,1001.53
2018-09-21T01:47:02.571Z,1001.50
2018-09-21T01:48:02.589Z,1001.53
2018-09-21T01:49:02.602Z,1001.48
2018-09-21T01:50:02.669Z,1001.47
2018-09-21T01:53:02.675Z,1001.46
2018-09-21T01:54:02.675Z,1001.37
2018-09-21T01:55:02.692Z,1001.36
2018-09-21T01:56:02.711Z,1001.33
2018-09-21T01:57:02.727Z,1001.33
2018-09-21T01:58:02.737Z,1001.34
2018-09-21T01:59:02.754Z,1001.32
2018-09-21T02:00:02.768Z,1001.31
2018-09-21T02:01:02.813Z,1001.25
2018-09-21T02:02:02.797Z,1001.22
2018-09-21T02:03:02.814Z,1001.22
2018-09-21T02:04:02.834Z,1001.19
2018-09-21T02:05:02.848Z,1001.19
2018-09-21T02:06:02.862Z,1001.17
2018-09-21T02:07:02.874Z,1001.15
2018-09-21T02:08:02.889Z,1001.09
2018-09-21T02:09:02.904Z,1001.04
2018-09-21T02:10:02.925Z,1001.02
2018-09-21T02:11:02.937Z,1000.99
2018-09-21T02:12:02.962Z,1000.99
2018-09-21T02:13:02.965Z,1000.99
2018-09-21T02:14:02.979Z,1000.94
2018-09-21T02:15:03.004Z,1000.94
2018-09-21T02:16:03.015Z,1000.96
2018-09-21T02:17:03.031Z,1000.93
2018-09-21T02:18:03.041Z,1000.94
2018-09-21T02:19:03.055Z,1000.90
2018-09-21T02:20:03.070Z,1000.91
2018-09-21T02:21:03.086Z,1000.92
2018-09-21T02:22:03.120Z,1000.87
2018-09-21T02:23:03.122Z,1000.85
2018-09-21T02:24:03.130Z,1000.85
2018-09-21T02:25:03.163Z,1000.87
2018-09-21T02:26:03.581Z,1000.82
2018-09-21T02:27:03.176Z,1000.82
2018-09-21T02:28:03.192Z,1000.85
2018-09-21T02:29:03.204Z,1000.83
2018-09-21T02:30:03.772Z,1000.78
2018-09-21T02:31:03.237Z,1000.80
2018-09-21T02:32:03.453Z,1000.77
2018-09-21T02:33:03.301Z,1000.75
2018-09-21T02:34:03.282Z,1000.76
2018-09-21T02:35:03.298Z,1000.73
2018-09-21T02:36:03.313Z,1000.74
2018-09-21T02:37:03.329Z,1000.73
2018-09-21T02:38:03.339Z,1000.66
2018-09-21T02:39:03.357Z,1000.66
2018-09-21T02:40:03.374Z,1000.63
2018-09-21T02:41:03.385Z,1000.60
2018-09-21T02:42:03.415Z,1000.54
2018-09-21T02:43:03.444Z,1000.50
2018-09-21T02:44:03.431Z,1000.55
2018-09-21T02:45:03.447Z,1000.48
2018-09-21T02:46:03.474Z,1000.50
2018-09-21T02:47:03.481Z,1000.45
2018-09-21T02:48:03.496Z,1000.43
2018-09-21T02:49:03.509Z,1000.39
2018-09-21T02:50:03.523Z,1000.38
2018-09-21T02:51:03.536Z,1000.33
2018-09-21T02:52:03.552Z,1000.33
2018-09-21T02:53:03.565Z,1000.31
2018-09-21T02:54:03.586Z,1000.30
2018-09-21T02:55:03.603Z,1000.28
2018-09-21T02:58:04.045Z,1000.22
2018-09-21T02:59:03.658Z,1000.17
2018-09-21T03:00:03.672Z,1000.12
2018-09-21T03:01:03.686Z,1000.06
2018-09-21T03:02:03.703Z,1000.03
2018-09-21T03:03:03.716Z,999.97
2018-09-21T03:04:03.753Z,999.97
2018-09-21T03:05:03.749Z,999.96
2018-09-21T03:06:03.765Z,999.92
2018-09-21T03:07:03.781Z,999.89
2018-09-21T03:08:03.794Z,999.84
2018-09-21T03:09:03.821Z,999.76
2018-09-21T03:10:03.823Z,999.74
2018-09-21T03:11:03.839Z,999.77
2018-09-21T03:12:03.853Z,999.78
2018-09-21T03:13:03.953Z,999.77
2018-09-21T03:14:03.883Z,999.73
2018-09-21T03:15:03.919Z,999.70
2018-09-21T03:16:03.918Z,999.71
2018-09-21T03:17:03.928Z,999.69
2018-09-21T03:18:03.942Z,999.70
2018-09-21T03:19:03.961Z,999.70
2018-09-21T03:20:03.974Z,999.70
2018-09-21T03:21:03.991Z,999.70
2018-09-21T03:22:04.005Z,999.70
2018-09-21T03:23:04.027Z,999.65
2018-09-21T03:24:04.037Z,999.66
2018-09-21T03:25:04.055Z,999.62
2018-09-21T03:26:04.095Z,999.60
2018-09-21T03:27:04.087Z,999.63
2018-09-21T03:28:04.100Z,999.64
2018-09-21T03:29:04.119Z,999.61
2018-09-21T03:30:04.128Z,999.52
2018-09-21T03:31:04.355Z,999.42
2018-09-21T03:33:04.202Z,999.39
2018-09-21T03:34:04.188Z,999.33
2018-09-21T03:35:04.275Z,999.32
2018-09-21T03:36:04.217Z,999.23
2018-09-21T03:37:04.236Z,999.18
2018-09-21T03:38:04.272Z,999.14
2018-09-21T03:39:04.263Z,999.12
2018-09-21T03:40:04.277Z,999.09
2018-09-21T03:41:04.293Z,999.07
2018-09-21T03:42:04.305Z,999.13
2018-09-21T03:43:04.320Z,999.10
2018-09-21T03:44:04.336Z,999.01
2018-09-21T03:45:04.349Z,998.96
2018-09-21T03:46:04.376Z,998.96
2018-09-21T03:47:04.383Z,998.93
2018-09-21T03:48:04.432Z,998.85
2018-09-21T03:49:04.409Z,998.82
2018-09-21T03:50:04.426Z,998.79
2018-09-21T03:51:04.443Z,998.76
2018-09-21T03:52:04.458Z,998.71
2018-09-21T03:53:04.475Z,998.74
2018-09-21T03:54:04.492Z,998.70
2018-09-21T03:55:04.511Z,998.71
2018-09-21T03:56:04.518Z,998.67
2018-09-21T03:57:04.535Z,998.66
2018-09-21T03:58:04.552Z,998.61
2018-09-21T03:59:04.565Z,998.61
2018-09-21T04:00:04.577Z,998.61
2018-09-21T04:01:04.739Z,998.62
2018-09-21T04:03:04.631Z,998.50
2018-09-21T04:04:04.669Z,998.55
2018-09-21T04:05:04.652Z,998.51
2018-09-21T04:06:04.672Z,998.48
2018-09-21T04:07:04.685Z,998.45
2018-09-21T04:08:04.701Z,998.43
2018-09-21T04:09:04.713Z,998.41
2018-09-21T04:10:04.727Z,998.42
2018-09-21T04:11:04.745Z,998.39
2018-09-21T04:12:04.757Z,998.37
2018-09-21T04:13:04.771Z,998.30
2018-09-21T04:14:04.788Z,998.26
2018-09-21T04:15:04.803Z,998.27
2018-09-21T04:16:04.821Z,998.22
2018-09-21T04:17:04.852Z,998.24
2018-09-21T04:18:04.847Z,998.23
2018-09-21T04:19:04.866Z,998.22
2018-09-21T04:20:04.879Z,998.16
2018-09-21T04:21:04.892Z,998.11
2018-09-21T04:22:04.906Z,998.10
2018-09-21T04:23:04.993Z,998.11
2018-09-21T04:24:04.939Z,998.11
2018-09-21T04:25:04.956Z,998.07
2018-09-21T04:26:04.968Z,998.03
2018-09-21T04:27:04.984Z,998.03
2018-09-21T04:28:04.997Z,998.04
2018-09-21T04:29:05.012Z,998.04
2018-09-21T04:30:05.033Z,998.08
2018-09-21T04:31:05.043Z,998.08
2018-09-21T04:32:05.062Z,998.12
2018-09-21T04:33:05.073Z,998.06
2018-09-21T04:34:05.103Z,998.07
2018-09-21T04:35:05.138Z,998.07
2018-09-21T04:36:05.136Z,998.06
2018-09-21T04:37:05.195Z,998.05
2018-09-21T04:38:05.153Z,997.99
2018-09-21T04:39:05.165Z,998.03
2018-09-21T04:40:05.183Z,997.97
2018-09-21T04:41:05.192Z,997.97
2018-09-21T04:42:05.211Z,997.96
2018-09-21T04:43:05.232Z,997.98
2018-09-21T04:44:05.243Z,997.96
2018-09-21T04:45:05.255Z,997.93
2018-09-21T04:46:05.412Z,997.93
2018-09-21T04:47:05.286Z,997.90
2018-09-21T04:48:05.312Z,997.89
2018-09-21T04:49:05.315Z,997.84
2018-09-21T04:50:05.338Z,997.76
2018-09-21T04:51:05.348Z,997.71
2018-09-21T04:52:05.375Z,997.76
2018-09-21T04:53:05.380Z,997.72
2018-09-21T04:54:05.392Z,997.71
2018-09-21T04:55:05.406Z,997.69
2018-09-21T04:56:05.420Z,997.72
2018-09-21T04:57:05.436Z,997.72
2018-09-21T04:58:05.454Z,997.70
2018-09-21T04:59:05.507Z,997.78
2018-09-21T05:00:05.483Z,997.70
2018-09-21T05:01:05.498Z,997.71
2018-09-21T05:02:05.985Z,997.75
2018-09-21T05:03:05.931Z,997.70
2018-09-21T05:04:05.553Z,997.68
2018-09-21T05:05:05.694Z,997.71
2018-09-21T05:06:05.594Z,997.72
2018-09-21T05:07:06.269Z,997.75
2018-09-21T05:08:06.135Z,997.65
2018-09-21T05:09:05.621Z,997.62
2018-09-21T05:10:05.636Z,997.58
2018-09-21T05:11:05.682Z,997.49
2018-09-21T05:12:05.729Z,997.55
2018-09-21T05:13:05.691Z,997.54
2018-09-21T05:14:05.697Z,997.58
2018-09-21T05:15:05.715Z,997.53
2018-09-21T05:16:05.726Z,997.56
2018-09-21T05:17:05.734Z,997.54
2018-09-21T05:18:05.768Z,997.61
2018-09-21T05:19:05.763Z,997.56
2018-09-21T05:20:05.776Z,997.55
2018-09-21T05:21:05.794Z,997.46
2018-09-21T05:22:05.810Z,997.44
2018-09-21T05:23:05.822Z,997.47
2018-09-21T05:24:05.837Z,997.47
2018-09-21T05:25:05.850Z,997.49
2018-09-21T05:26:05.867Z,997.44
2018-09-21T05:27:05.886Z,997.38
2018-09-21T05:28:05.899Z,997.39
2018-09-21T05:29:05.936Z,997.44
2018-09-21T05:30:05.939Z,997.46
2018-09-21T05:31:05.965Z,997.44
2018-09-21T05:32:05.959Z,997.52
2018-09-21T05:33:05.978Z,997.42
2018-09-21T05:34:06.049Z,997.42
2018-09-21T05:35:06.091Z,997.33
2018-09-21T05:36:06.019Z,997.38
2018-09-21T05:37:06.212Z,997.33
2018-09-21T05:38:06.073Z,997.35
2018-09-21T05:39:06.073Z,997.47
2018-09-21T05:40:06.079Z,997.35
2018-09-21T05:41:06.095Z,997.39
2018-09-21T05:42:06.108Z,997.38
2018-09-21T05:43:06.123Z,997.42
2018-09-21T05:44:06.139Z,997.37
2018-09-21T05:45:06.160Z,997.36
2018-09-21T05:46:06.245Z,997.40
2018-09-21T05:47:06.233Z,997.36
2018-09-21T05:48:06.203Z,997.36
2018-09-21T05:49:06.216Z,997.42
2018-09-21T05:50:06.235Z,997.41
2018-09-21T05:51:06.246Z,997.38
2018-09-21T05:52:06.284Z,997.29
2018-09-21T05:53:06.281Z,997.37
2018-09-21T05:54:06.297Z,997.36
2018-09-21T05:55:06.307Z,997.33
2018-09-21T05:56:06.392Z,997.28
2018-09-21T05:57:06.384Z,997.27
2018-09-21T05:58:06.378Z,997.27
2018-09-21T05:59:06.396Z,997.29
2018-09-21T06:00:06.429Z,997.24
2018-09-21T06:01:06.404Z,997.34
2018-09-21T06:02:06.649Z,997.30
2018-09-21T06:03:06.442Z,997.34
2018-09-21T06:04:06.446Z,997.28
2018-09-21T06:05:06.458Z,997.29
2018-09-21T06:06:06.485Z,997.32
2018-09-21T06:07:06.496Z,997.27
2018-09-21T06:08:06.548Z,997.06
2018-09-21T06:09:06.520Z,997.26
2018-09-21T06:10:06.541Z,997.25
2018-09-21T06:11:06.585Z,997.19
2018-09-21T06:12:06.569Z,997.13
2018-09-21T06:13:06.580Z,997.16
2018-09-21T06:14:06.674Z,997.20
2018-09-21T06:15:06.629Z,997.17
2018-09-21T06:16:06.631Z,997.11
2018-09-21T06:17:06.789Z,997.07
2018-09-21T06:18:06.689Z,997.08
2018-09-21T06:19:06.733Z,997.05
2018-09-21T06:20:12.107Z,997.09
2018-09-21T06:21:06.750Z,997.11
2018-09-21T06:22:06.737Z,997.08
2018-09-21T06:23:06.927Z,997.07
2018-09-21T06:24:06.750Z,997.12
2018-09-21T06:25:06.776Z,997.22
2018-09-21T06:26:06.780Z,997.21
2018-09-21T06:27:06.797Z,997.22
2018-09-21T06:28:06.810Z,997.26
2018-09-21T06:29:06.826Z,997.26
2018-09-21T06:30:07.139Z,997.11
2018-09-21T06:31:06.963Z,997.20
2018-09-21T06:32:06.873Z,997.12
2018-09-21T06:33:06.892Z,997.07
2018-09-21T06:34:07.371Z,997.23
2018-09-21T06:35:06.918Z,997.16
2018-09-21T06:36:07.149Z,997.08
2018-09-21T06:37:07.293Z,997.17
2018-09-21T06:38:06.965Z,997.10
2018-09-21T06:39:06.979Z,997.00
2018-09-21T06:40:06.995Z,997.10
2018-09-21T06:41:07.052Z,997.07
2018-09-21T06:42:07.023Z,996.99
2018-09-21T06:43:07.039Z,996.98
2018-09-21T06:44:07.057Z,996.99
2018-09-21T06:45:07.090Z,996.97
2018-09-21T06:46:07.175Z,996.97
2018-09-21T06:47:07.100Z,996.99
2018-09-21T06:48:07.115Z,997.03
2018-09-21T06:49:07.131Z,997.05
2018-09-21T06:50:07.148Z,997.08
2018-09-21T06:51:07.168Z,997.12
2018-09-21T06:52:07.183Z,997.21
2018-09-21T06:53:07.366Z,997.18
2018-09-21T06:54:07.208Z,997.22
2018-09-21T06:55:07.428Z,997.22
2018-09-21T06:56:07.238Z,997.24
2018-09-21T06:57:07.255Z,997.25
2018-09-21T06:58:07.268Z,997.34
2018-09-21T06:59:07.712Z,997.31
2018-09-21T07:00:07.306Z,997.35
2018-09-21T07:01:07.316Z,997.28
2018-09-21T07:02:07.391Z,997.23
2018-09-21T07:03:07.350Z,997.30
2018-09-21T07:04:07.363Z,997.32
2018-09-21T07:05:07.379Z,997.28
2018-09-21T07:06:07.425Z,997.37
2018-09-21T07:07:07.406Z,997.45
2018-09-21T07:08:07.423Z,997.48
2018-09-21T07:09:07.438Z,997.49
2018-09-21T07:10:07.483Z,997.46
2018-09-21T07:11:07.473Z,997.51
2018-09-21T07:12:07.487Z,997.47
2018-09-21T07:13:07.703Z,997.40
2018-09-21T07:14:07.524Z,997.46
2018-09-21T07:15:07.546Z,997.29
2018-09-21T07:16:07.545Z,997.29
2018-09-21T07:17:07.563Z,997.21
2018-09-21T07:18:07.577Z,997.24
2018-09-21T07:19:07.593Z,997.29
2018-09-21T07:20:07.609Z,997.30
2018-09-21T07:21:07.623Z,997.31
2018-09-21T07:22:07.638Z,997.25
2018-09-21T07:23:07.658Z,997.33
2018-09-21T07:24:07.678Z,997.36
2018-09-21T07:25:07.684Z,997.43
2018-09-21T07:26:07.700Z,997.40
2018-09-21T07:27:07.716Z,997.44
2018-09-21T07:28:07.735Z,997.52
2018-09-21T07:29:07.778Z,997.52
2018-09-21T07:30:07.768Z,997.53
2018-09-21T07:31:07.810Z,997.44
2018-09-21T07:32:07.792Z,997.58
2018-09-21T07:33:07.808Z,997.55
2018-09-21T07:34:07.825Z,997.51
2018-09-21T07:35:07.863Z,997.54
2018-09-21T07:36:07.857Z,997.50
2018-09-21T07:37:07.868Z,997.46
2018-09-21T07:38:07.888Z,997.48
2018-09-21T07:39:07.923Z,997.34
2018-09-21T07:40:07.944Z,997.29
2018-09-21T07:41:08.847Z,997.31
2018-09-21T07:42:07.954Z,997.31
2018-09-21T07:43:08.084Z,997.34
2018-09-21T07:44:07.978Z,997.36
2018-09-21T07:45:07.991Z,997.42
2018-09-21T07:46:08.008Z,997.37
2018-09-21T07:47:08.023Z,997.42
2018-09-21T07:48:08.038Z,997.44
2018-09-21T07:49:08.055Z,997.52
2018-09-21T07:50:08.069Z,997.49
2018-09-21T07:51:08.086Z,997.53
2018-09-21T07:52:08.123Z,997.55
2018-09-21T07:53:08.117Z,997.48
2018-09-21T07:54:08.136Z,997.56
2018-09-21T07:56:08.489Z,997.41
2018-09-21T07:57:08.178Z,997.52
2018-09-21T07:59:08.264Z,997.72
2018-09-21T08:00:08.225Z,997.58
2018-09-21T08:01:08.241Z,997.54
2018-09-21T08:02:08.282Z,997.43
2018-09-21T08:03:08.272Z,997.43
2018-09-21T08:04:08.607Z,997.50
2018-09-21T08:05:08.312Z,997.37
2018-09-21T08:06:08.323Z,997.46
2018-09-21T08:07:08.395Z,997.47
2018-09-21T08:08:08.346Z,997.54
2018-09-21T08:09:08.363Z,997.68
2018-09-21T08:10:08.378Z,997.74
2018-09-21T08:11:08.396Z,997.56
2018-09-21T08:12:08.415Z,997.56
2018-09-21T08:13:08.431Z,997.56
2018-09-21T08:14:08.444Z,997.53
2018-09-21T08:15:08.480Z,997.47
2018-09-21T08:16:08.474Z,997.61
2018-09-21T08:17:08.509Z,997.55
2018-09-21T08:18:08.501Z,997.45
2018-09-21T08:19:08.517Z,997.40
2018-09-21T08:20:08.557Z,997.49
2018-09-21T08:21:08.546Z,997.51
2018-09-21T08:22:08.563Z,997.44
2018-09-21T08:23:08.581Z,997.48
2018-09-21T08:24:08.595Z,997.40
2018-09-21T08:25:08.629Z,997.44
2018-09-21T08:26:09.879Z,997.45
2018-09-21T08:27:08.647Z,997.45
2018-09-21T08:28:08.660Z,997.46
2018-09-21T08:29:08.670Z,997.30
2018-09-21T08:30:08.690Z,997.28
2018-09-21T08:31:08.708Z,997.31
2018-09-21T08:32:08.722Z,997.38
2018-09-21T08:33:08.749Z,997.30
2018-09-21T08:34:08.753Z,997.27
2018-09-21T08:35:08.764Z,997.33
2018-09-21T08:36:08.781Z,997.22
2018-09-21T08:37:08.823Z,997.26
2018-09-21T08:38:08.812Z,997.26
2018-09-21T08:39:08.829Z,997.23
2018-09-21T08:40:08.866Z,997.12
2018-09-21T08:41:08.870Z,997.13
2018-09-21T08:42:08.874Z,997.14
2018-09-21T08:43:08.889Z,997.23
2018-09-21T08:44:08.909Z,997.21
2018-09-21T08:45:08.921Z,997.16
2018-09-21T08:46:08.935Z,997.13
2018-09-21T08:47:08.964Z,997.12
2018-09-21T08:48:08.968Z,997.15
2018-09-21T08:49:08.984Z,997.13
2018-09-21T08:50:09.005Z,997.08
2018-09-21T08:51:09.014Z,997.16
2018-09-21T08:52:09.037Z,997.19
2018-09-21T08:53:09.363Z,997.19
2018-09-21T08:54:09.067Z,997.29
2018-09-21T08:55:09.077Z,997.30
2018-09-21T08:56:09.093Z,997.23
2018-09-21T08:57:09.109Z,997.23
2018-09-21T08:58:09.124Z,997.23
2018-09-21T08:59:09.139Z,997.19
2018-09-21T09:00:09.154Z,997.18
2018-09-21T09:01:09.169Z,997.22
2018-09-21T09:02:09.186Z,997.19
2018-09-21T09:03:09.235Z,997.27
2018-09-21T09:04:09.217Z,997.33
2018-09-21T09:05:09.235Z,997.38
2018-09-21T09:06:09.249Z,997.53
2018-09-21T09:07:09.323Z,997.60
2018-09-21T09:08:09.281Z,997.78
2018-09-21T09:09:09.292Z,997.82
2018-09-21T09:10:09.308Z,997.89
2018-09-21T09:11:09.736Z,997.98
2018-09-21T09:12:09.345Z,998.09
2018-09-21T09:13:09.354Z,998.38
2018-09-21T09:14:09.368Z,998.45
2018-09-21T09:15:09.416Z,998.46
2018-09-21T09:16:09.400Z,998.59
2018-09-21T09:17:09.414Z,998.70
2018-09-21T09:18:09.428Z,998.78
2018-09-21T09:19:09.443Z,998.92
2018-09-21T09:20:09.457Z,999.13
2018-09-21T09:21:09.473Z,999.41
2018-09-21T09:22:09.496Z,999.49
2018-09-21T09:23:09.604Z,999.25
2018-09-21T09:24:09.518Z,999.46
2018-09-21T09:25:09.546Z,999.40
2018-09-21T09:26:09.545Z,999.27
2018-09-21T09:27:09.566Z,999.52
2018-09-21T09:28:09.600Z,999.36
2018-09-21T09:29:09.589Z,999.51
2018-09-21T09:30:09.696Z,999.57
2018-09-21T09:31:09.669Z,999.50
2018-09-21T09:32:09.633Z,999.53
2018-09-21T09:33:09.650Z,999.49
2018-09-21T09:34:09.664Z,999.61
2018-09-21T09:35:09.680Z,999.52
2018-09-21T09:36:09.705Z,999.55
2018-09-21T09:37:09.704Z,999.65
2018-09-21T09:38:10.071Z,999.70
2018-09-21T09:39:09.747Z,999.69
2018-09-21T09:40:09.974Z,999.73
2018-09-21T09:41:09.761Z,999.66
2018-09-21T09:42:09.779Z,999.71
2018-09-21T09:43:09.848Z,999.68
2018-09-21T09:44:09.805Z,999.61
2018-09-21T09:45:09.843Z,999.64
2018-09-21T09:46:09.831Z,999.63
2018-09-21T09:47:09.857Z,999.65
2018-09-21T09:48:09.874Z,999.77
2018-09-21T09:49:09.888Z,999.73
2018-09-21T09:50:09.890Z,999.79
2018-09-21T09:51:09.956Z,999.76
2018-09-21T09:52:09.920Z,999.74
2018-09-21T09:53:09.935Z,999.80
2018-09-21T09:54:09.946Z,999.87
2018-09-21T09:55:09.967Z,999.80
2018-09-21T09:56:09.974Z,999.86
2018-09-21T09:57:10.021Z,999.90
2018-09-21T09:58:09.999Z,999.89
2018-09-21T09:59:10.014Z,999.97
2018-09-21T10:00:10.031Z,999.98
2018-09-21T10:01:10.042Z,999.95
2018-09-21T10:02:10.059Z,999.91
2018-09-21T10:03:10.076Z,999.97
2018-09-21T10:04:10.086Z,999.98
2018-09-21T10:05:10.113Z,1000.01
2018-09-21T10:06:10.121Z,1000.01
2018-09-21T10:07:10.203Z,1000.03
2018-09-21T10:08:10.181Z,1000.03
2018-09-21T10:09:10.198Z,1000.01
2018-09-21T10:10:10.224Z,1000.00
2018-09-21T10:11:10.189Z,999.97
2018-09-21T10:12:10.202Z,1000.00
2018-09-21T10:13:10.211Z,1000.06
2018-09-21T10:14:10.234Z,1000.16
2018-09-21T10:15:10.240Z,1000.25
2018-09-21T10:16:10.257Z,1000.16
2018-09-21T10:17:10.293Z,1000.16
2018-09-21T10:18:11.343Z,1000.12
2018-09-21T10:19:10.298Z,1000.03
2018-09-21T10:20:10.312Z,1000.07
2018-09-21T10:21:10.356Z,1000.13
2018-09-21T10:22:10.347Z,1000.15
2018-09-21T10:23:10.355Z,1000.23
2018-09-21T10:24:10.446Z,1000.11
2018-09-21T10:25:10.386Z,1000.08
2018-09-21T10:26:10.399Z,1000.16
2018-09-21T10:27:10.477Z,1000.14
2018-09-21T10:28:10.522Z,1000.15
2018-09-21T10:29:10.444Z,1000.19
2018-09-21T10:30:10.455Z,1000.25
2018-09-21T10:31:10.477Z,1000.30
2018-09-21T10:32:10.484Z,1000.30
2018-09-21T10:33:10.502Z,1000.34
2018-09-21T10:34:10.542Z,1000.32
2018-09-21T10:35:10.530Z,1000.38
2018-09-21T10:36:10.557Z,1000.41
2018-09-21T10:37:10.635Z,1000.54
2018-09-21T10:38:10.780Z,1000.45
2018-09-21T10:39:10.672Z,1000.47
2018-09-21T10:40:10.693Z,1000.50
2018-09-21T10:41:10.613Z,1000.44
2018-09-21T10:42:10.632Z,1000.52
2018-09-21T10:44:10.670Z,1000.56
2018-09-21T10:45:11.130Z,1000.57
2018-09-21T10:46:10.686Z,1000.48
2018-09-21T10:47:10.700Z,1000.54
2018-09-21T10:48:10.718Z,1000.46
2018-09-21T10:49:10.728Z,1000.47
2018-09-21T10:50:10.742Z,1000.40
2018-09-21T10:51:10.755Z,1000.44
2018-09-21T10:52:10.775Z,1000.42
2018-09-21T10:53:10.788Z,1000.41
2018-09-21T10:54:10.801Z,1000.43
2018-09-21T10:55:10.821Z,1000.48
2018-09-21T10:56:10.829Z,1000.49
2018-09-21T10:57:10.843Z,1000.52
2018-09-21T10:58:10.861Z,1000.51
2018-09-21T10:59:10.874Z,1000.49
2018-09-21T11:00:10.891Z,1000.54
2018-09-21T11:01:10.901Z,1000.68
2018-09-21T11:02:10.914Z,1000.62
2018-09-21T11:03:10.935Z,1000.63
2018-09-21T11:04:10.943Z,1000.60
2018-09-21T11:05:11.008Z,1000.62
2018-09-21T11:06:10.975Z,1000.65
2018-09-21T11:07:11.103Z,1000.60
2018-09-21T11:08:11.420Z,1000.66
2018-09-21T11:09:11.016Z,1000.73
2018-09-21T11:10:11.037Z,1000.77
2018-09-21T11:11:11.046Z,1000.81
2018-09-21T11:12:11.062Z,1000.83
2018-09-21T11:13:11.125Z,1000.86
2018-09-21T11:14:11.089Z,1000.84
2018-09-21T11:15:11.104Z,1000.81
2018-09-21T11:16:11.120Z,1000.85
2018-09-21T11:17:11.136Z,1000.87
2018-09-21T11:18:11.149Z,1000.88
2018-09-21T11:19:11.169Z,1000.95
2018-09-21T11:20:11.179Z,1000.93
2018-09-21T11:21:11.193Z,1000.90
2018-09-21T11:22:11.207Z,1000.95
2018-09-21T11:23:11.220Z,1000.93
2018-09-21T11:24:11.239Z,1000.98
2018-09-21T11:25:11.253Z,1000.96
2018-09-21T11:26:11.266Z,1001.03
2018-09-21T11:27:11.282Z,1000.95
2018-09-21T11:28:11.299Z,1000.99
2018-09-21T11:29:11.315Z,1000.98
2018-09-21T11:30:11.326Z,1000.95
2018-09-21T11:31:11.347Z,1000.88
2018-09-21T11:32:11.358Z,1000.90
2018-09-21T11:33:11.410Z,1000.93
2018-09-21T11:34:11.384Z,1000.87
2018-09-21T11:35:11.433Z,1000.94
2018-09-21T11:36:11.413Z,1000.98
2018-09-21T11:37:11.427Z,1000.99
2018-09-21T11:38:11.450Z,1001.02
2018-09-21T11:39:11.462Z,1001.05
2018-09-21T11:40:11.475Z,1001.01
2018-09-21T11:41:11.490Z,1001.00
2018-09-21T11:42:11.519Z,1001.08
2018-09-21T11:43:11.517Z,1001.06
2018-09-21T11:44:11.535Z,1000.98
2018-09-21T11:45:11.547Z,1000.98
2018-09-21T11:46:11.577Z,1001.04
2018-09-21T11:47:11.592Z,1001.05
2018-09-21T11:48:11.594Z,1001.03
2018-09-21T11:49:11.608Z,1001.05
2018-09-21T11:50:11.622Z,1001.05
2018-09-21T11:51:11.681Z,1001.07
2018-09-21T11:52:11.667Z,1001.06
2018-09-21T11:53:11.693Z,1001.03
2018-09-21T11:54:11.685Z,1001.08
2018-09-21T11:55:11.698Z,1001.14
2018-09-21T11:56:11.713Z,1001.16
2018-09-21T11:57:11.726Z,1001.12
2018-09-21T11:58:11.741Z,1001.14
2018-09-21T11:59:11.754Z,1001.26
2018-09-21T12:00:11.830Z,1001.25
2018-09-21T12:01:11.797Z,1001.18
2018-09-21T12:02:11.799Z,1001.24
2018-09-21T12:03:11.816Z,1001.24
2018-09-21T12:04:11.831Z,1001.25
2018-09-21T12:05:11.843Z,1001.24
2018-09-21T12:06:11.868Z,1001.21
2018-09-21T12:07:11.874Z,1001.26
2018-09-21T12:08:11.891Z,1001.30
2018-09-21T12:09:11.904Z,1001.32
2018-09-21T12:10:11.919Z,1001.30
2018-09-21T12:11:11.934Z,1001.31
2018-09-21T12:12:11.949Z,1001.34
2018-09-21T12:13:11.991Z,1001.37
2018-09-21T12:14:11.978Z,1001.38
2018-09-21T12:15:11.991Z,1001.35
2018-09-21T12:16:12.007Z,1001.49
2018-09-21T12:17:12.036Z,1001.60
2018-09-21T12:18:12.038Z,1001.51
2018-09-21T12:19:12.052Z,1001.54
2018-09-21T12:20:12.065Z,1001.44
2018-09-21T12:21:12.086Z,1001.55
2018-09-21T12:22:12.130Z,1001.51
2018-09-21T12:23:12.111Z,1001.48
2018-09-21T12:25:12.183Z,1001.53
2018-09-21T12:26:12.163Z,1001.53
2018-09-21T12:27:12.192Z,1001.56
2018-09-21T12:28:12.199Z,1001.52
2018-09-21T12:29:12.211Z,1001.63
2018-09-21T12:30:12.268Z,1001.48
2018-09-21T12:31:12.230Z,1001.42